Flight Track Log - Related Links

Times and Time Zones

All times are in EDT time to prevent confusion due to time zone crossing. See the N65HL flight status page for this flight to view local times or setup timezone preferences in your user account.

Time Position Orientation Groundspeed Altitude Reporting Facility
EDT Latitude Longitude Course Direction KTS MPH feet Rate Location/Type
Mon 10:51:50 AM 31.2939 -89.3164 313° West 146 168 2,700  Level Houston Center
Mon 10:52:51 AM 31.3297 -89.3356 335° Northwest 139 160 3,600 585 Climbing Houston Center
Mon 10:53:53 AM 31.3572 -89.3611 322° Northwest 166 191 3,900 435 Climbing Houston Center
Mon 10:54:55 AM 31.3533 -89.4181 265° West 181 208 4,500 774 Climbing Houston Center
Mon 10:55:57 AM 31.3519 -89.4706 268° West 170 196 5,500 871 Climbing Houston Center
Mon 10:56:00 AM 31.2667 -89.6059 270° West  Level FlightAware Approximate
Mon 10:56:59 AM 31.3525 -89.5203 271° West 158 182 6,300  Level Houston Center
Mon 10:58:02 AM 31.3511 -89.5744 268° West 160 184 7,000 726 Climbing Houston Center
Mon 10:59:03 AM 31.3500 -89.6361 269° West 160 184 7,800 488 Climbing Houston Center
Mon 11:00:05 AM 31.3483 -89.6881 268° West 160 184 8,000 97 Climbing Houston Center
Mon 11:01:07 AM 31.3472 -89.7469 269° West 175 201 8,000  Level Houston Center
Mon 11:02:09 AM 31.3453 -89.8042 268° West 177 204 8,000  Level Houston Center
Mon 11:03:10 AM 31.3453 -89.8606 270° West 175 201 8,000  Level Houston Center
Mon 11:04:12 AM 31.3431 -89.9183 267° West 177 204 8,000  Level Houston Center
Mon 11:05:14 AM 31.3419 -89.9861 269° West 176 203 8,000  Level Houston Center
Mon 11:06:16 AM 31.3406 -90.0439 268° West 177 204 8,000  Level Houston Center
Mon 11:07:18 AM 31.3389 -90.1025 268° West 179 206 8,000  Level Houston Center
Mon 11:08:20 AM 31.3369 -90.1597 268° West 178 205 8,000  Level Houston Center
Mon 11:09:22 AM 31.3361 -90.2175 269° West 179 206 8,000  Level Houston Center
Mon 11:10:24 AM 31.3339 -90.2761 267° West 180 207 8,000  Level Houston Center
Mon 11:11:26 AM 31.3333 -90.3461 269° West 180 207 8,000  Level Houston Center
Mon 11:12:27 AM 31.3311 -90.4044 267° West 180 207 8,000  Level Houston Center
Mon 11:13:29 AM 31.3297 -90.4636 268° West 183 211 8,000  Level Houston Center
Mon 11:14:31 AM 31.3439 -90.5203 286° West 181 208 8,000  Level Houston Center
Mon 11:15:33 AM 31.3597 -90.5761 288° West 181 208 8,000  Level Houston Center
Mon 11:16:35 AM 31.3756 -90.6306 289° West 179 206 8,000  Level Houston Center
Mon 11:17:37 AM 31.3956 -90.6972 289° West 182 209 8,000  Level Houston Center
Mon 11:18:39 AM 31.4106 -90.7539 287° West 181 208 8,000  Level Houston Center
Mon 11:19:41 AM 31.4261 -90.8089 288° West 180 207 8,000  Level Houston Center
Mon 11:20:43 AM 31.4397 -90.8656 286° West 180 207 8,000  Level Houston Center
Mon 11:21:45 AM 31.4550 -90.9236 287° West 184 212 8,000  Level Houston Center
Mon 11:22:47 AM 31.4714 -90.9800 289° West 184 212 8,000  Level Houston Center
Mon 11:23:50 AM 31.4906 -91.0464 289° West 182 209 8,000 -48 Level Houston Center
Mon 11:24:52 AM 31.5036 -91.1000 286° West 184 212 7,900 -48 Descending Houston Center
Mon 11:25:54 AM 31.5222 -91.1689 288° West 185 213 7,900  Level Houston Center
Mon 11:26:56 AM 31.5369 -91.2267 287° West 186 214 7,900 48 Level Houston Center
Mon 11:27:58 AM 31.5536 -91.2839 289° West 186 214 8,000 48 Climbing Houston Center
Mon 11:29:00 AM 31.5681 -91.3425 286° West 187 215 8,000  Level Houston Center
Mon 11:30:02 AM 31.5831 -91.3997 287° West 185 213 8,000 48 Level Houston Center
Mon 11:31:05 AM 31.5989 -91.4561 288° West 184 212 8,100 48 Climbing Houston Center
Mon 11:32:07 AM 31.6169 -91.5242 287° West 183 211 8,100  Level Houston Center
Mon 11:33:09 AM 31.6319 -91.5825 287° West 184 212 8,100  Level Houston Center
Mon 11:34:11 AM 31.6461 -91.6406 286° West 186 214 8,100  Level Houston Center
Mon 11:35:13 AM 31.6608 -91.6981 287° West 185 213 8,100 -48 Level Houston Center
Mon 11:36:16 AM 31.6761 -91.7581 287° West 187 215 8,000 -49 Descending Houston Center
Mon 11:37:16 AM 31.6939 -91.8297 286° West 189 217 8,000  Level Houston Center
Mon 11:38:17 AM 31.7106 -91.8869 289° West 188 216 8,000  Level Houston Center
Mon 11:39:18 AM 31.7253 -91.9467 286° West 189 217 8,000  Level Houston Center
Mon 11:40:19 AM 31.7400 -92.0042 287° West 190 219 8,000  Level Houston Center
Mon 11:41:20 AM 31.7547 -92.0639 286° West 190 219 8,000  Level Houston Center
Mon 11:42:20 AM 31.7714 -92.1261 288° West 189 217 8,000  Level Houston Center
Mon 11:43:21 AM 31.7858 -92.1811 287° West 187 215 8,000 45 Level Houston Center
Mon 11:44:32 AM 31.8033 -92.2511 286° West 190 219 8,100  Climbing Houston Center
Mon 11:45:23 AM 31.8175 -92.3081 286° West 192 221 8,000 -54 Descending Houston Center
Mon 11:46:24 AM 31.8319 -92.3656 286° West 192 221 8,000  Level Houston Center
Mon 11:47:24 AM 31.8486 -92.4278 288° West 192 221 8,000  Level Houston Center
Mon 11:48:25 AM 31.8653 -92.4900 288° West 194 223 8,000  Level Houston Center
Mon 11:49:26 AM 31.8797 -92.5500 286° West 195 224 8,000  Level Houston Center
Mon 11:50:27 AM 31.8964 -92.6125 287° West 192 221 8,000  Level Houston Center
Mon 11:51:27 AM 31.9108 -92.6725 286° West 191 220 8,000  Level Houston Center
Mon 11:52:49 AM 31.9294 -92.7425 287° West 191 220 8,000  Level Houston Center
Mon 11:53:51 AM 31.9478 -92.8133 287° West 190 219 8,000  Level Houston Center
Mon 11:54:53 AM 31.9619 -92.8731 286° West 190 219 8,000  Level Houston Center
Mon 11:55:56 AM 31.9767 -92.9322 286° West 190 219 8,000  Level Houston Center
Mon 11:56:58 AM 31.9917 -92.9928 286° West 192 221 8,000  Level Houston Center
Mon 11:58:00 AM 32.0072 -93.0522 287° West 192 221 8,000  Level Houston Center
Mon 11:59:02 AM 32.0244 -93.1228 286° West 189 217 8,000  Level Houston Center
Mon 12:00:04 PM 32.0389 -93.1825 286° West 189 217 8,000  Level Houston Center
Mon 12:01:06 PM 32.0536 -93.2394 287° West 186 214 8,000  Level Houston Center
Mon 12:02:08 PM 32.0686 -93.2989 287° West 188 216 8,000  Level Houston Center
Mon 12:03:11 PM 32.0828 -93.3583 286° West 188 216 8,000  Level Houston Center
Mon 12:04:13 PM 32.0981 -93.4161 287° West 187 215 8,000  Level Houston Center
Mon 12:05:15 PM 32.1144 -93.4875 285° West 188 216 8,000  Level Houston Center
Mon 12:06:17 PM 32.1294 -93.5447 287° West 185 213 8,000  Level Houston Center
Mon 12:06:49 PM 32.1364 -93.5839 282° West 186 214 8,000  Level Fort Worth Center
Mon 12:07:50 PM 32.1508 -93.6444 286° West 188 216 8,000  Level Fort Worth Center
Mon 12:08:50 PM 32.1650 -93.7028 286° West 186 214 8,000  Level Fort Worth Center
Mon 12:09:51 PM 32.1792 -93.7611 286° West 186 214 8,000  Level Fort Worth Center
Mon 12:10:52 PM 32.1933 -93.8169 287° West 186 214 8,000  Level Fort Worth Center
Mon 12:11:46 PM 32.2053 -93.8731 284° West 185 213 8,000  Level Fort Worth Center
Mon 12:12:53 PM 32.2239 -93.9386 289° West 185 213 8,000  Level Fort Worth Center
Mon 12:13:54 PM 32.2381 -93.9994 285° West 184 212 8,000  Level Fort Worth Center
Mon 12:14:55 PM 32.2500 -94.0581 284° West 185 213 8,000  Level Fort Worth Center
Mon 12:16:00 PM 32.2621 -94.1206 283° West  Level FlightAware Approximate
Mon 12:23:00 PM 32.3551 -94.5206 288° West  Level FlightAware Approximate
Mon 12:24:00 PM 32.3703 -94.5771 288° West  Level FlightAware Approximate
Mon 12:25:00 PM 32.3855 -94.6336 288° West  Level FlightAware Approximate
Mon 12:26:00 PM 32.4007 -94.6902 288° West  Level FlightAware Approximate
Mon 12:27:00 PM 32.4158 -94.7467 288° West  Level FlightAware Approximate
Mon 12:28:00 PM 32.4058 -94.8045 257° West  Level FlightAware Approximate
Mon 12:29:00 PM 32.3943 -94.8622 257° West  Level FlightAware Approximate
Mon 12:30:00 PM 32.3827 -94.9199 257° West  Level FlightAware Approximate
Mon 12:31:00 PM 32.3712 -94.9776 257° West  Level FlightAware Approximate
Mon 12:31:10 PM 32.3781 -94.9903 260° West 197 227 8,000  Level Fort Worth Center
Mon 12:32:00 PM 32.3612 -95.0357 260° West  Level FlightAware Approximate
Mon 12:32:10 PM 32.3728 -95.0494 264° West 202 232 8,000  Level Fort Worth Center
Mon 12:33:00 PM 32.3522 -95.0941 260° West  Level FlightAware Approximate
Mon 12:33:10 PM 32.3719 -95.1186 269° West 196 226 8,000  Level Fort Worth Center
Mon 12:34:00 PM 32.3433 -95.1524 260° West  Level FlightAware Approximate
Mon 12:34:10 PM 32.3856 -95.1772 285° West 196 226 8,000  Level Fort Worth Center
Mon 12:35:00 PM 32.3343 -95.2108 260° West  Level FlightAware Approximate
Mon 12:35:10 PM 32.3950 -95.2358 281° West 196 226 8,000  Level Fort Worth Center
Mon 12:36:10 PM 32.4064 -95.2972 282° West 196 226 8,000  Level Fort Worth Center
Mon 12:37:10 PM 32.4136 -95.3586 278° West 196 226 8,000  Level Fort Worth Center
Mon 12:38:10 PM 32.4250 -95.4175 283° West 196 226 8,000  Level Fort Worth Center
Mon 12:39:10 PM 32.4325 -95.4811 278° West 196 226 8,000  Level Fort Worth Center
Mon 12:40:10 PM 32.4417 -95.5425 280° West 196 226 8,000  Level Fort Worth Center
Mon 12:41:10 PM 32.4508 -95.6014 280° West 196 226 8,000  Level Fort Worth Center
Mon 12:42:10 PM 32.4600 -95.6628 280° West 196 226 8,000  Level Fort Worth Center
Mon 12:43:10 PM 32.4714 -95.7192 283° West 191 220 8,000  Level Fort Worth Center
Mon 12:44:10 PM 32.4806 -95.7806 280° West 191 220 8,000  Level Fort Worth Center
Mon 12:45:10 PM 32.4897 -95.8444 280° West 191 220 8,000  Level Fort Worth Center
Mon 12:46:10 PM 32.4986 -95.8986 281° West 196 226 8,000  Level Fort Worth Center
Mon 12:47:10 PM 32.5078 -95.9650 279° West 196 226 8,000  Level Fort Worth Center
Mon 12:48:10 PM 32.5167 -96.0189 281° West 196 226 8,000  Level Fort Worth Center
Mon 12:49:10 PM 32.5236 -96.0731 279° West 196 226 8,000  Level Fort Worth Center
Mon 12:50:10 PM 32.5328 -96.1444 279° West 196 226 8,000  Level Fort Worth Center
Mon 12:51:10 PM 32.5436 -96.2033 282° West 191 220 8,000  Level Fort Worth Center
Mon 12:52:10 PM 32.5525 -96.2575 281° West 191 220 8,000 -500 Level Fort Worth Center
Mon 12:53:10 PM 32.5636 -96.3314 280° West 199 229 7,000 -500 Descending Fort Worth Center
Mon 12:54:10 PM 32.5911 -96.3828 302° West 199 229 7,000  Level Fort Worth Center
Mon 12:55:10 PM 32.6231 -96.4392 304° West 199 229 7,000 -300 Level Fort Worth Center
Mon 12:56:10 PM 32.6506 -96.4881 304° West 194 223 6,400 -700 Descending Fort Worth Center
Mon 12:57:10 PM 32.6925 -96.5444 311° West 199 229 5,600 -700 Descending Fort Worth Center
Mon 12:58:10 PM 32.7325 -96.5861 319° Northwest 204 235 5,000 -300 Descending Fort Worth Center
Mon 12:59:10 PM 32.7747 -96.6375 314° West 198 228 5,000 -58 Level Fort Worth Center
Mon 12:59:53 PM 32.8000 -96.6667 316° Northwest 188 216 4,900 -462 Descending Dallas / Fort Worth TRACON
Mon 01:00:54 PM 32.8333 -96.7167 308° West 202 232 4,200 -714 Descending Dallas / Fort Worth TRACON
Mon 01:01:59 PM 32.8833 -96.7667 320° Northwest 183 211 3,400 -714 Descending Dallas / Fort Worth TRACON
Mon 01:03:00 PM 32.9000 -96.8167 292° West 179 206 2,700 -744 Descending Dallas / Fort Worth TRACON
Mon 01:04:00 PM 32.8833 -96.8667 248° West 117 135 1,900 -850 Descending Dallas / Fort Worth TRACON
Mon 01:04:53 PM 32.8667 -96.8833 220° Southwest 103 119 1,100 -906 Descending Dallas / Fort Worth TRACON
Mon 01:06:00 PM 32.8471 -96.8518 164° South  Level Estimated
Mon 01:13:00 PM 32.8471 -96.8518 164° South  Level Estimated

Login

Don't have an account? Register now (free) for customized features, flight alerts, and more!